Latest Weather Observations for St Kilda Harbour RMYS

IDV60801

Issued at 5:02 am EST Monday 30 May 2016 (issued every 30 minutes, with the page automatically refreshed every 10 minutes)

About weather observations | Map of weather stations | Latest weather observations for VIC | Other Formats
Station Details ID: 086220 Name: ST KILDA HARBOUR - RMYS Lat: -37.86 Lon: 144.96 Height: 6.4 m
Data from the previous 72 hours. | See also: Recent months for locations in Victoria
Date/Time
EST
Temp
°C
App
Temp
°C
Dew
Point
Rel
Hum
%
Delta-T
°C
Wind Press
QNH
hPa
Press
MSL
hPa
Rain
since 9 am
mm
Dir
 
Spd
km/h
Gust
km/h
Spd
kts
Gust
kts
30/05:00am - - - - - NE 4 7 2 4 - - -
30/04:30am - - - - - NNE 4 7 2 4 - - -
30/04:00am - - - - - NE 4 7 2 4 - - -
30/03:30am - - - - - NE 6 9 3 5 - - -
30/03:00am - - - - - NNE 4 7 2 4 - - -
30/02:30am - - - - - N 6 9 3 5 - - -
30/02:00am - - - - - N 2 6 1 3 - - -
30/01:30am - - - - - N 6 7 3 4 - - -
30/01:00am - - - - - N 6 7 3 4 - - -
30/12:30am - - - - - N 7 11 4 6 - - -
30/12:00am - - - - - N 9 13 5 7 - - -
 
Date/Time
EST
Temp
°C
App
Temp
°C
Dew
Point
Rel
Hum
%
Delta-T
°C
Wind Press
QNH
hPa
Press
MSL
hPa
Rain
since 9 am
mm
Dir
 
Spd
km/h
Gust
km/h
Spd
kts
Gust
kts
29/11:30pm - - - - - NNE 7 11 4 6 - - -
29/11:00pm - - - - - NE 11 17 6 9 - - -
29/10:30pm - - - - - NNW 7 9 4 5 - - -
29/10:00pm - - - - - NW 9 13 5 7 - - -
29/09:30pm - - - - - WNW 15 19 8 10 - - -
29/09:00pm - - - - - W 15 19 8 10 - - -
29/08:30pm - - - - - W 15 17 8 9 - - -
29/08:00pm - - - - - W 15 17 8 9 - - -
29/07:30pm - - - - - W 13 17 7 9 - - -
29/07:00pm - - - - - SW 7 11 4 6 - - -
29/06:30pm - - - - - SSW 15 19 8 10 - - -
29/06:00pm - - - - - SSW 15 20 8 11 - - -
29/05:30pm - - - - - SW 11 17 6 9 - - -
29/05:00pm - - - - - SW 20 28 11 15 - - -
29/04:30pm - - - - - WSW 15 17 8 9 - - -
29/04:00pm - - - - - WSW 19 22 10 12 - - -
29/03:30pm - - - - - WSW 19 20 10 11 - - -
29/03:00pm - - - - - WSW 19 22 10 12 - - -
29/02:30pm - - - - - W 22 26 12 14 - - -
29/02:00pm - - - - - W 24 32 13 17 - - -
29/01:30pm - - - - - WSW 30 35 16 19 - - -
29/01:00pm - - - - - WSW 35 41 19 22 - - -
29/12:30pm - - - - - WSW 26 32 14 17 - - -
29/12:00pm - - - - - W 22 28 12 15 - - -
29/11:30am - - - - - W 28 33 15 18 - - -
29/11:00am - - - - - WSW 28 35 15 19 - - -
29/10:30am - - - - - W 28 33 15 18 - - -
29/10:00am - - - - - WSW 33 39 18 21 - - -
29/09:30am - - - - - WSW 32 37 17 20 - - -
29/09:00am - - - - - W 30 33 16 18 - - -
29/08:30am - - - - - W 26 32 14 17 - - -
29/08:00am - - - - - W 30 33 16 18 - - -
29/07:30am - - - - - WSW 33 39 18 21 - - -
29/07:00am - - - - - W 30 35 16 19 - - -
29/06:30am - - - - - W 32 37 17 20 - - -
29/06:00am - - - - - W 33 43 18 23 - - -
29/05:30am - - - - - W 30 35 16 19 - - -
29/05:00am - - - - - W 30 35 16 19 - - -
29/04:30am - - - - - W 26 32 14 17 - - -
29/04:00am - - - - - W 26 32 14 17 - - -
29/03:30am - - - - - W 32 37 17 20 - - -
29/03:00am - - - - - W 32 39 17 21 - - -
29/02:30am - - - - - W 28 33 15 18 - - -
29/02:00am - - - - - W 28 33 15 18 - - -
29/01:30am - - - - - WSW 32 41 17 22 - - -
29/01:00am - - - - - W 22 28 12 15 - - -
29/12:30am - - - - - W 24 32 13 17 - - -
29/12:00am - - - - - W 26 33 14 18 - - -
 
Date/Time
EST
Temp
°C
App
Temp
°C
Dew
Point
Rel
Hum
%
Delta-T
°C
Wind Press
QNH
hPa
Press
MSL
hPa
Rain
since 9 am
mm
Dir
 
Spd
km/h
Gust
km/h
Spd
kts
Gust
kts
28/11:30pm - - - - - W 24 30 13 16 - - -
28/11:00pm - - - - - W 22 28 12 15 - - -
28/10:30pm - - - - - W 30 41 16 22 - - -
28/10:00pm - - - - - WSW 35 43 19 23 - - -
28/09:30pm - - - - - WSW 33 41 18 22 - - -
28/09:00pm - - - - - WSW 32 35 17 19 - - -
28/08:30pm - - - - - WSW 35 43 19 23 - - -
28/08:00pm - - - - - WSW 33 37 18 20 - - -
28/07:30pm - - - - - WSW 32 37 17 20 - - -
28/07:00pm - - - - - SW 33 39 18 21 - - -
28/06:30pm - - - - - SSW 41 50 22 27 - - -
28/06:00pm - - - - - SSW 43 50 23 27 - - -
28/05:30pm - - - - - SSW 43 52 23 28 - - -
28/05:00pm - - - - - SSW 37 46 20 25 - - -
28/04:30pm - - - - - SSW 41 48 22 26 - - -
28/04:00pm - - - - - SW 35 43 19 23 - - -
28/03:30pm - - - - - SW 32 39 17 21 - - -
28/03:00pm - - - - - SSW 33 39 18 21 - - -
28/02:30pm - - - - - SSW 35 43 19 23 - - -
28/02:00pm - - - - - SSW 20 32 11 17 - - -
28/01:30pm - - - - - SSE 15 19 8 10 - - -
28/01:00pm - - - - - SSE 19 24 10 13 - - -
28/12:30pm - - - - - SSW 32 39 17 21 - - -
28/12:00pm - - - - - SSW 24 30 13 16 - - -
28/11:30am - - - - - SSW 41 50 22 27 - - -
28/11:25am - - - - - SSW 39 44 21 24 - - -
28/11:00am - - - - - SW 32 44 17 24 - - -
28/10:30am - - - - - WSW 30 35 16 19 - - -
28/10:00am - - - - - WSW 28 37 15 20 - - -
28/09:30am - - - - - WSW 22 28 12 15 - - -
28/09:00am - - - - - N 6 9 3 5 - - -
28/08:30am - - - - - N 9 11 5 6 - - -
28/08:00am - - - - - N 9 11 5 6 - - -
28/07:30am - - - - - NNW 11 13 6 7 - - -
28/07:00am - - - - - NNE 9 11 5 6 - - -
28/06:30am - - - - - N 7 9 4 5 - - -
28/06:00am - - - - - NE 6 7 3 4 - - -
28/05:30am - - - - - NNE 7 9 4 5 - - -
28/05:00am - - - - - NNE 7 9 4 5 - - -
28/04:30am - - - - - NNE 6 9 3 5 - - -
28/04:00am - - - - - NNE 9 13 5 7 - - -
28/03:30am - - - - - NNE 6 9 3 5 - - -
28/03:00am - - - - - N 6 7 3 4 - - -
28/02:30am - - - - - N 7 13 4 7 - - -
28/02:00am - - - - - N 4 6 2 3 - - -
28/01:30am - - - - - NE 6 7 3 4 - - -
28/01:00am - - - - - NNE 6 9 3 5 - - -
28/12:30am - - - - - NNE 7 11 4 6 - - -
28/12:00am - - - - - N 7 9 4 5 - - -
 
Date/Time
EST
Temp
°C
App
Temp
°C
Dew
Point
Rel
Hum
%
Delta-T
°C
Wind Press
QNH
hPa
Press
MSL
hPa
Rain
since 9 am
mm
Dir
 
Spd
km/h
Gust
km/h
Spd
kts
Gust
kts
27/11:30pm - - - - - N 6 9 3 5 - - -
27/11:00pm - - - - - NNE 7 9 4 5 - - -
27/10:30pm - - - - - NE 7 9 4 5 - - -
27/10:00pm - - - - - NNE 7 9 4 5 - - -
27/09:30pm - - - - - NE 7 11 4 6 - - -
27/09:00pm - - - - - ENE 11 15 6 8 - - -
27/08:30pm - - - - - E 11 15 6 8 - - -
27/08:00pm - - - - - E 11 13 6 7 - - -
27/07:30pm - - - - - E 9 11 5 6 - - -
27/07:00pm - - - - - ESE 7 9 4 5 - - -
27/06:30pm - - - - - ESE 6 7 3 4 - - -
27/06:00pm - - - - - ESE 6 7 3 4 - - -
27/05:30pm - - - - - SE 7 7 4 4 - - -
27/05:00pm - - - - - SE 6 7 3 4 - - -
27/04:30pm - - - - - SSE 6 7 3 4 - - -
27/04:00pm - - - - - SSW 6 9 3 5 - - -
27/03:30pm - - - - - SW 9 11 5 6 - - -
27/03:00pm - - - - - SSW 11 15 6 8 - - -
27/02:30pm - - - - - SW 11 15 6 8 - - -
27/02:00pm - - - - - SW 13 19 7 10 - - -
27/01:30pm - - - - - SW 17 20 9 11 - - -
27/01:00pm - - - - - SW 19 20 10 11 - - -
27/12:30pm - - - - - WSW 19 24 10 13 - - -
27/12:00pm - - - - - WSW 20 26 11 14 - - -
27/11:30am - - - - - WSW 24 28 13 15 - - -
27/11:00am - - - - - W 22 26 12 14 - - -
27/10:30am - - - - - W 22 28 12 15 - - -
27/10:00am - - - - - W 22 28 12 15 - - -
27/09:30am - - - - - W 30 35 16 19 - - -
27/09:00am - - - - - W 28 37 15 20 - - -
27/08:30am - - - - - W 26 35 14 19 - - -
27/08:00am - - - - - WNW 28 33 15 18 - - -
27/07:30am - - - - - W 24 30 13 16 - - -
27/07:00am - - - - - WNW 26 30 14 16 - - -
27/06:30am - - - - - WNW 22 28 12 15 - - -
27/06:00am - - - - - W 26 30 14 16 - - -
27/05:30am - - - - - W 26 33 14 18 - - -

Other Formats:

Comma delimited format used in spreadsheet applications
http://www.bom.gov.au/fwo/IDV60801/IDV60801.95864.axf

JavaScript Object Notation format (JSON) in row-major order
http://www.bom.gov.au/fwo/IDV60801/IDV60801.95864.json